Time;durP1;ratioP1;P1;durP2;ratioP2;P2;SDS_P1;SDS_P2;PMS_P1;PMS_P2;Temp;Humidity;BMP_temperature;BMP_pressure;BME280_temperature;BME280_humidity;BME280_pressure;Samples;Min_cycle;Max_cycle;Signal;HPM_P1;HPM_P2
2022/08/01 00:00:04;;;;;;;4.00;2.10;;;;;;;20.63;50.59;97372.88;5025204;28;20049;-62
2022/08/01 00:02:34;;;;;;;3.58;2.00;;;;;;;20.74;50.09;97367.88;5026372;28;20500;-62
2022/08/01 00:05:01;;;;;;;3.20;1.90;;;;;;;20.71;50.27;97376.78;5025993;28;20065;-62
2022/08/01 00:07:28;;;;;;;4.22;2.13;;;;;;;20.66;50.55;97377.75;5024580;28;20117;-62
2022/08/01 00:09:54;;;;;;;4.65;1.95;;;;;;;20.60;50.53;97374.31;5025976;28;20071;-62
2022/08/01 00:12:21;;;;;;;3.95;1.80;;;;;;;20.56;51.24;97369.78;5025722;28;20041;-62
2022/08/01 00:14:48;;;;;;;3.20;1.95;;;;;;;20.50;51.04;97377.38;5026196;28;20049;-62
2022/08/01 00:17:14;;;;;;;3.75;2.00;;;;;;;20.52;51.41;97369.59;5025128;28;20041;-62
2022/08/01 00:19:41;;;;;;;3.70;2.10;;;;;;;20.60;51.02;97371.56;5010310;28;20054;-62
2022/08/01 00:22:08;;;;;;;3.75;2.03;;;;;;;20.60;51.30;97379.81;5025968;28;20087;-63
2022/08/01 00:24:35;;;;;;;3.97;2.63;;;;;;;20.62;51.13;97377.56;5029839;28;20119;-63
2022/08/01 00:27:01;;;;;;;5.53;1.95;;;;;;;20.64;51.28;97380.00;5028847;28;20104;-62
2022/08/01 00:29:28;;;;;;;3.50;1.92;;;;;;;20.58;51.93;97376.59;5028378;28;20141;-62
2022/08/01 00:32:14;;;;;;;4.80;2.10;;;;;;;20.60;51.98;97385.31;5010189;28;20046;-62
2022/08/01 00:34:41;;;;;;;4.90;2.20;;;;;;;20.66;51.85;97391.50;5027306;28;20045;-63
2022/08/01 00:37:07;;;;;;;4.05;2.00;;;;;;;20.67;51.66;97382.94;5028427;28;20045;-62
2022/08/01 00:39:35;;;;;;;3.65;2.00;;;;;;;20.61;52.36;97391.66;5029348;28;20765;-62
2022/08/01 00:42:12;;;;;;;3.65;2.17;;;;;;;20.58;52.32;97387.59;5028400;28;20061;-62
2022/08/01 00:44:39;;;;;;;3.65;2.28;;;;;;;20.61;52.33;97386.16;5028662;28;20033;-62
2022/08/01 00:47:06;;;;;;;3.75;2.08;;;;;;;20.49;53.09;97382.03;5027811;28;20501;-62
2022/08/01 00:49:34;;;;;;;6.13;2.25;;;;;;;20.45;53.07;97385.75;5026893;28;20594;-62
2022/08/01 00:52:04;;;;;;;3.88;1.83;;;;;;;20.41;53.26;97393.81;5029301;28;20046;-62
2022/08/01 00:54:31;;;;;;;4.28;1.83;;;;;;;20.42;53.72;97387.22;5028669;28;20068;-62
2022/08/01 00:56:58;;;;;;;3.90;2.05;;;;;;;20.36;53.76;97381.03;5028691;28;20042;-62
2022/08/01 00:59:26;;;;;;;3.28;1.90;;;;;;;20.32;54.09;97382.78;5029147;28;20042;-62
2022/08/01 01:01:52;;;;;;;4.07;2.10;;;;;;;20.28;54.38;97388.09;5028344;28;20045;-62
2022/08/01 01:04:20;;;;;;;4.95;1.83;;;;;;;20.29;54.28;97388.91;5011011;28;20716;-62
2022/08/01 01:06:46;;;;;;;3.47;1.92;;;;;;;20.23;54.91;97385.47;5020556;28;20037;-62
2022/08/01 01:09:39;;;;;;;4.65;2.28;;;;;;;20.17;54.96;97388.69;5027570;28;20405;-62
2022/08/01 01:12:13;;;;;;;3.30;2.00;;;;;;;20.15;55.31;97391.75;5028755;28;20412;-62
2022/08/01 01:14:45;;;;;;;3.92;2.33;;;;;;;20.09;55.68;97390.28;5028110;28;20046;-62
2022/08/01 01:17:16;;;;;;;3.38;2.10;;;;;;;20.11;55.50;97391.56;5028201;28;20056;-62
2022/08/01 01:19:59;;;;;;;4.18;2.20;;;;;;;19.94;56.57;97388.69;5009529;28;20042;-62
2022/08/01 01:22:30;;;;;;;4.55;2.25;;;;;;;19.87;56.69;97392.69;5028016;28;20508;-62
2022/08/01 01:25:22;;;;;;;4.18;2.10;;;;;;;19.89;56.64;97389.63;5023669;28;20037;-63
2022/08/01 01:28:06;;;;;;;3.33;2.08;;;;;;;19.84;56.92;97389.75;5016242;28;20045;-62
2022/08/01 01:30:33;;;;;;;4.28;2.05;;;;;;;19.82;57.05;97390.06;5028554;28;20496;-62
2022/08/01 01:33:03;;;;;;;4.82;2.45;;;;;;;19.76;57.39;97391.31;5026462;28;20052;-62
2022/08/01 01:35:34;;;;;;;3.63;2.20;;;;;;;19.71;57.73;97384.00;5007423;28;20053;-62
2022/08/01 01:38:07;;;;;;;3.75;2.20;;;;;;;19.66;58.11;97389.63;5015381;28;20087;-62
2022/08/01 01:40:34;;;;;;;4.65;2.10;;;;;;;19.56;58.80;97387.94;5021079;28;20730;-62
2022/08/01 01:43:00;;;;;;;3.15;1.90;;;;;;;19.56;58.49;97392.59;5018698;28;20713;-62
2022/08/01 01:45:28;;;;;;;3.47;2.20;;;;;;;19.51;59.35;97385.31;5020635;28;20052;-62
2022/08/01 01:47:56;;;;;;;3.63;2.40;;;;;;;19.50;59.26;97392.72;5016618;28;20056;-62
2022/08/01 01:50:24;;;;;;;3.97;2.08;;;;;;;19.49;59.83;97390.28;5027992;28;20049;-62
2022/08/01 01:52:52;;;;;;;3.55;2.33;;;;;;;19.50;59.81;97392.72;5027771;28;20042;-63
2022/08/01 01:55:21;;;;;;;3.63;2.10;;;;;;;19.51;60.09;97393.56;5027675;28;20048;-62
2022/08/01 01:57:50;;;;;;;4.32;2.47;;;;;;;19.47;60.42;97392.56;5027678;28;20087;-63
2022/08/01 02:00:17;;;;;;;4.82;1.90;;;;;;;19.45;60.54;97392.03;5027795;28;20099;-62
2022/08/01 02:02:45;;;;;;;4.78;2.50;;;;;;;19.44;61.01;97399.47;5027746;28;20045;-62
2022/08/01 02:05:13;;;;;;;4.35;1.80;;;;;;;19.42;61.25;97389.94;5026356;28;20107;-62
2022/08/01 02:07:41;;;;;;;3.83;2.22;;;;;;;19.40;61.23;97394.91;5026605;28;20046;-62
2022/08/01 02:10:10;;;;;;;4.53;2.70;;;;;;;19.27;61.79;97394.63;5027619;28;20049;-62
2022/08/01 02:12:40;;;;;;;4.22;2.22;;;;;;;19.17;62.40;97403.88;5027894;28;20053;-61
2022/08/01 02:15:09;;;;;;;5.40;2.42;;;;;;;19.13;62.72;97404.84;5027984;28;20041;-62
2022/08/01 02:17:43;;;;;;;6.45;2.58;;;;;;;19.12;62.82;97406.75;5027355;28;20411;-62
2022/08/01 02:20:11;;;;;;;3.55;1.90;;;;;;;19.07;63.11;97407.69;5007916;28;20046;-62
2022/08/01 02:22:41;;;;;;;3.35;2.15;;;;;;;19.07;63.30;97407.69;5022123;28;20053;-62
2022/08/01 02:25:22;;;;;;;4.57;2.15;;;;;;;19.10;63.24;97407.06;5027232;28;20044;-62
2022/08/01 02:28:10;;;;;;;3.77;2.10;;;;;;;19.13;63.16;97411.16;5027024;28;20063;-62
2022/08/01 02:30:41;;;;;;;4.00;1.92;;;;;;;19.07;63.49;97415.94;5027146;28;20119;-62
2022/08/01 02:33:31;;;;;;;5.15;2.05;;;;;;;18.94;63.66;97419.47;5027312;28;20052;-62
2022/08/01 02:36:00;;;;;;;4.45;2.50;;;;;;;18.80;64.42;97423.00;5018879;28;20057;-63
2022/08/01 02:38:48;;;;;;;3.75;2.20;;;;;;;18.75;64.83;97423.13;5027027;28;20042;-62
2022/08/01 02:41:20;;;;;;;3.58;2.65;;;;;;;18.63;65.34;97420.06;5027457;28;20053;-62
2022/08/01 02:43:51;;;;;;;4.68;2.28;;;;;;;18.54;65.95;97422.72;5023698;28;20753;-62
2022/08/01 02:46:34;;;;;;;3.50;2.03;;;;;;;18.42;66.42;97423.19;5026454;28;20037;-62
2022/08/01 02:49:03;;;;;;;4.55;2.25;;;;;;;18.30;66.82;97413.53;5025319;28;20043;-62
2022/08/01 02:51:31;;;;;;;4.38;2.47;;;;;;;18.31;66.79;97420.63;5024001;28;20044;-62
2022/08/01 02:54:01;;;;;;;4.75;2.05;;;;;;;18.26;66.96;97425.38;5012189;28;20053;-62
2022/08/01 02:56:34;;;;;;;5.55;2.20;;;;;;;18.23;67.42;97423.25;5024895;28;20124;-62
2022/08/01 02:59:13;;;;;;;3.83;2.20;;;;;;;18.19;67.21;97431.25;5026540;28;20651;-62
2022/08/01 03:01:43;;;;;;;3.83;2.38;;;;;;;18.25;67.05;97432.81;5026408;28;19944;-62
2022/08/01 03:04:10;;;;;;;;;;;;;;;18.10;67.39;97422.94;5010354;28;20052;-62
2022/08/01 03:06:38;;;;;;;4.15;2.30;;;;;;;18.02;67.96;97424.38;5006743;28;20526;-62
2022/08/01 03:09:06;;;;;;;;;;;;;;;17.94;68.00;97419.59;5023836;28;20045;-62
2022/08/01 03:11:34;;;;;;;;;;;;;;;17.96;68.05;97417.38;5027027;28;19936;-62
2022/08/01 03:14:03;;;;;;;;;;;;;;;17.79;68.86;97418.75;5026812;28;19952;-62
2022/08/01 03:16:31;;;;;;;;;;;;;;;17.74;68.93;97424.31;5026050;28;20440;-62
2022/08/01 03:18:58;;;;;;;;;;;;;;;17.66;69.58;97414.03;5015547;28;19929;-62
2022/08/01 03:21:27;;;;;;;5.22;2.70;;;;;;;17.58;69.78;97418.22;5010173;28;19921;-62
2022/08/01 03:23:57;;;;;;;3.95;2.40;;;;;;;17.49;70.14;97418.09;5026255;28;20038;-62
2022/08/01 03:26:28;;;;;;;6.43;2.67;;;;;;;17.47;70.51;97417.56;5026324;28;20061;-62
2022/08/01 03:29:04;;;;;;;3.45;2.03;;;;;;;17.53;70.12;97415.56;5025414;28;20497;-62
2022/08/01 03:31:31;;;;;;;3.33;2.15;;;;;;;17.46;70.64;97424.16;5026223;28;20052;-62
2022/08/01 03:33:58;;;;;;;3.00;1.98;;;;;;;17.41;70.90;97425.06;5025198;28;20389;-62
2022/08/01 03:36:34;;;;;;;5.03;2.08;;;;;;;17.39;71.09;97424.53;5014352;28;20065;-61
2022/08/01 03:39:03;;;;;;;4.90;2.38;;;;;;;17.33;71.14;97427.63;5016966;28;20071;-62
2022/08/01 03:41:37;;;;;;;4.63;2.00;;;;;;;17.31;71.25;97422.44;5024860;28;20056;-62
2022/08/01 03:44:09;;;;;;;3.80;2.03;;;;;;;17.32;71.44;97426.00;5016143;28;20030;-62
2022/08/01 03:46:43;;;;;;;6.82;2.50;;;;;;;17.23;71.94;97432.16;5023031;28;20649;-62
2022/08/01 03:49:23;;;;;;;3.75;2.50;;;;;;;17.19;72.14;97427.53;5017545;28;20052;-62
2022/08/01 03:51:52;;;;;;;5.30;2.60;;;;;;;17.12;72.51;97433.38;5015002;28;20116;-62
2022/08/01 03:54:23;;;;;;;4.30;2.63;;;;;;;17.12;72.47;97428.72;5022318;28;20390;-62
2022/08/01 03:56:51;;;;;;;4.78;2.42;;;;;;;17.11;72.53;97431.75;5012457;28;20096;-62
2022/08/01 03:59:19;;;;;;;6.55;3.03;;;;;;;17.11;72.41;97434.50;5018375;28;20053;-62
2022/08/01 04:01:47;;;;;;;3.80;2.40;;;;;;;17.07;72.37;97433.44;5027429;28;20041;-62
2022/08/01 04:04:14;;;;;;;4.15;2.50;;;;;;;17.10;72.42;97435.59;5020663;28;20464;-62
2022/08/01 04:06:41;;;;;;;4.15;2.30;;;;;;;17.12;72.34;97430.63;5013960;28;20048;-62
2022/08/01 04:09:08;;;;;;;5.70;2.50;;;;;;;17.06;72.55;97437.31;5014097;28;20068;-62
2022/08/01 04:11:40;;;;;;;5.13;2.60;;;;;;;17.00;72.95;97434.56;5023355;28;20037;-62
2022/08/01 04:14:07;;;;;;;5.82;2.58;;;;;;;16.98;73.08;97439.53;5022229;28;20033;-62
2022/08/01 04:16:35;;;;;;;5.63;2.75;;;;;;;16.94;73.45;97441.22;5020081;28;20543;-64
2022/08/01 04:19:02;;;;;;;8.55;3.00;;;;;;;16.94;73.42;97435.75;5016799;28;20587;-63
2022/08/01 04:21:30;;;;;;;4.13;2.30;;;;;;;16.97;73.28;97445.28;5017303;28;20053;-63
2022/08/01 04:24:04;;;;;;;3.95;2.28;;;;;;;17.00;73.36;97440.03;5014063;28;20053;-61
2022/08/01 04:26:33;;;;;;;3.80;2.45;;;;;;;16.85;73.91;97435.56;5014453;28;20464;-63
2022/08/01 04:29:02;;;;;;;4.00;2.65;;;;;;;16.86;74.06;97429.03;5027117;28;20045;-65
2022/08/01 04:31:31;;;;;;;4.53;2.42;;;;;;;17.03;73.33;97433.19;5020913;28;20050;-63
2022/08/01 04:34:01;;;;;;;5.32;2.58;;;;;;;17.19;72.58;97428.38;5013329;28;20046;-63
2022/08/01 04:36:30;;;;;;;4.93;2.63;;;;;;;17.39;72.04;97437.38;5019636;28;20045;-63
2022/08/01 04:39:00;;;;;;;4.20;2.60;;;;;;;17.57;71.15;97441.25;5020344;28;20045;-64
2022/08/01 04:41:29;;;;;;;4.72;2.47;;;;;;;17.52;71.51;97436.69;5018635;28;20045;-63
2022/08/01 04:43:59;;;;;;;4.78;2.40;;;;;;;17.61;71.17;97438.75;5016295;28;20072;-64
2022/08/01 04:46:28;;;;;;;4.05;2.10;;;;;;;17.65;71.02;97435.09;5023257;28;20041;-63
2022/08/01 04:48:56;;;;;;;5.93;2.40;;;;;;;17.67;71.29;97432.06;5013048;28;20132;-66
2022/08/01 04:51:22;;;;;;;5.38;2.63;;;;;;;17.66;71.41;97433.19;5025262;28;20095;-63
2022/08/01 04:53:50;;;;;;;4.40;2.55;;;;;;;17.54;71.65;97439.09;5013756;28;20409;-64
2022/08/01 04:56:18;;;;;;;4.55;2.33;;;;;;;17.63;71.73;97439.25;5024972;28;20041;-65
2022/08/01 04:58:45;;;;;;;5.13;2.05;;;;;;;17.70;71.34;97436.13;5022407;28;20037;-65
2022/08/01 05:01:12;;;;;;;5.75;2.53;;;;;;;17.66;71.34;97431.25;5025535;28;20041;-65
2022/08/01 05:03:38;;;;;;;4.22;2.35;;;;;;;17.60;72.09;97439.84;5014736;28;20049;-65
2022/08/01 05:06:05;;;;;;;3.78;2.47;;;;;;;17.65;71.37;97429.63;5018900;28;20045;-65
2022/08/01 05:08:32;;;;;;;5.40;2.45;;;;;;;17.55;72.25;97440.75;5015363;28;20030;-64
2022/08/01 05:10:59;;;;;;;5.40;2.47;;;;;;;17.57;72.23;97430.28;5021968;28;20034;-64
2022/08/01 05:13:25;;;;;;;4.60;2.20;;;;;;;17.66;72.24;97435.94;5018383;28;20049;-64
2022/08/01 05:15:52;;;;;;;4.95;2.47;;;;;;;17.79;72.17;97440.66;5020709;28;20041;-64
2022/08/01 05:18:18;;;;;;;3.65;2.10;;;;;;;17.93;72.01;97437.97;5026961;28;20044;-64
2022/08/01 05:20:53;;;;;;;4.63;2.42;;;;;;;17.96;71.88;97438.47;5022947;28;20076;-65
2022/08/01 05:23:20;;;;;;;6.40;2.47;;;;;;;18.00;71.82;97443.06;5026837;28;20053;-64
2022/08/01 05:26:07;;;;;;;4.05;1.92;;;;;;;18.08;72.32;97447.06;5020957;28;20076;-64
2022/08/01 05:28:35;;;;;;;5.75;2.30;;;;;;;18.12;72.18;97439.06;5013599;28;20065;-63
2022/08/01 05:31:02;;;;;;;4.43;2.08;;;;;;;18.21;71.81;97442.75;5020257;28;20452;-62
2022/08/01 05:33:28;;;;;;;4.40;2.35;;;;;;;18.35;71.63;97445.50;5018022;28;20038;-63
2022/08/01 05:35:55;;;;;;;4.93;2.22;;;;;;;18.50;71.37;97440.88;5019836;28;20077;-63
2022/08/01 05:38:21;;;;;;;3.92;1.95;;;;;;;18.65;70.51;97445.25;5012202;28;20099;-63
2022/08/01 05:40:48;;;;;;;4.80;2.17;;;;;;;18.83;69.94;97447.09;5013972;28;20100;-65
2022/08/01 05:43:15;;;;;;;5.63;2.10;;;;;;;18.94;69.12;97452.38;5019683;28;20514;-64
2022/08/01 05:45:41;;;;;;;5.03;2.25;;;;;;;19.08;68.75;97444.97;5018624;28;20053;-62
2022/08/01 05:48:08;;;;;;;4.15;2.30;;;;;;;19.27;67.97;97454.22;5007628;28;20497;-62
2022/08/01 05:50:34;;;;;;;3.42;2.05;;;;;;;19.51;66.82;97453.97;5014636;28;20052;-64
2022/08/01 05:53:01;;;;;;;6.45;2.20;;;;;;;19.67;66.22;97457.16;5016905;28;20046;-63
2022/08/01 05:55:28;;;;;;;5.65;2.50;;;;;;;19.65;66.38;97450.38;5019221;28;20091;-64
2022/08/01 05:57:54;;;;;;;3.92;2.10;;;;;;;19.57;66.74;97460.94;5019746;28;20049;-63
2022/08/01 06:00:21;;;;;;;4.65;2.05;;;;;;;19.44;67.23;97451.63;5020866;28;20106;-65
2022/08/01 06:02:47;;;;;;;4.38;2.30;;;;;;;19.54;66.80;97452.53;5025622;28;20083;-64
2022/08/01 06:05:15;;;;;;;3.50;2.10;;;;;;;19.62;66.32;97457.28;5023465;28;20064;-63
2022/08/01 06:07:41;;;;;;;3.28;1.73;;;;;;;19.64;66.41;97457.78;5019535;28;20045;-64
2022/08/01 06:10:09;;;;;;;3.00;1.83;;;;;;;19.86;66.26;97457.00;5016389;28;20063;-64
2022/08/01 06:12:36;;;;;;;4.68;2.00;;;;;;;20.08;65.53;97449.91;5007338;28;20495;-64
2022/08/01 06:15:04;;;;;;;4.85;1.90;;;;;;;20.39;64.29;97456.56;5012543;28;20061;-64
2022/08/01 06:17:31;;;;;;;5.28;2.30;;;;;;;20.65;63.39;97453.94;5018458;28;20536;-63
2022/08/01 06:19:57;;;;;;;5.38;2.17;;;;;;;20.67;63.43;97459.94;5018950;28;20046;-67
2022/08/01 06:22:24;;;;;;;4.18;2.03;;;;;;;20.61;63.56;97446.66;5015648;28;20045;-67
2022/08/01 06:24:51;;;;;;;3.92;1.77;;;;;;;20.53;63.83;97456.50;5014418;28;20041;-67
2022/08/01 06:27:18;;;;;;;3.30;1.70;;;;;;;20.47;64.33;97453.06;5010759;28;20057;-67
2022/08/01 06:29:48;;;;;;;4.10;1.90;;;;;;;20.66;64.07;97454.75;5009816;28;20046;-67
2022/08/01 06:32:22;;;;;;;4.35;1.83;;;;;;;20.86;63.40;97449.84;5005466;28;20069;-67
2022/08/01 06:34:54;;;;;;;3.63;1.65;;;;;;;21.06;62.97;97453.97;5004002;28;20444;-67
2022/08/01 06:37:21;;;;;;;2.78;1.65;;;;;;;21.17;62.06;97451.75;5013200;28;20159;-67
2022/08/01 06:39:49;;;;;;;3.10;1.52;;;;;;;21.30;61.63;97444.50;5011754;28;20069;-67
2022/08/01 06:42:16;;;;;;;2.90;1.55;;;;;;;21.52;61.38;97448.25;5024496;28;20080;-67
2022/08/01 06:44:43;;;;;;;4.18;1.58;;;;;;;21.74;60.72;97452.00;5010956;28;20072;-67
2022/08/01 06:47:09;;;;;;;2.95;1.63;;;;;;;21.77;60.43;97459.63;5014676;28;20644;-67
2022/08/01 06:49:36;;;;;;;2.22;1.40;;;;;;;21.90;60.07;97453.16;5004800;28;20120;-67
2022/08/01 06:52:03;;;;;;;2.90;1.27;;;;;;;22.00;60.29;97467.72;5022249;28;20056;-67
2022/08/01 06:54:30;;;;;;;2.72;1.40;;;;;;;21.95;60.33;97465.94;5011141;28;20111;-68
2022/08/01 06:56:57;;;;;;;3.25;1.35;;;;;;;21.94;60.52;97462.41;5013601;28;20732;-68
2022/08/01 06:59:23;;;;;;;2.05;1.23;;;;;;;22.20;60.24;97456.03;5017842;28;20052;-67
2022/08/01 07:01:50;;;;;;;4.60;1.20;;;;;;;22.18;59.94;97461.06;5015248;28;20096;-67
2022/08/01 07:04:16;;;;;;;2.58;1.23;;;;;;;21.90;59.95;97464.19;5020437;28;20656;-67
2022/08/01 07:06:43;;;;;;;6.00;1.30;;;;;;;22.09;60.09;97463.03;5014944;28;20405;-67
2022/08/01 07:09:09;;;;;;;2.08;1.13;;;;;;;22.40;59.03;97464.75;5007239;28;20096;-66
2022/08/01 07:11:40;;;;;;;2.47;1.38;;;;;;;22.56;57.83;97473.31;5004122;28;20659;-67
2022/08/01 07:14:07;;;;;;;2.72;1.10;;;;;;;22.39;58.98;97463.13;5017544;28;20058;-67
2022/08/01 07:16:34;;;;;;;2.53;1.20;;;;;;;22.68;57.98;97461.63;5022203;28;20049;-67
2022/08/01 07:19:00;;;;;;;8.23;1.20;;;;;;;22.71;57.28;97462.91;5012321;28;20053;-67
2022/08/01 07:21:27;;;;;;;1.85;1.20;;;;;;;22.80;57.05;97469.19;5016391;28;20046;-67
2022/08/01 07:24:08;;;;;;;2.08;1.20;;;;;;;22.71;57.47;97466.47;5005585;28;20044;-68
2022/08/01 07:26:45;;;;;;;2.30;1.30;;;;;;;22.95;56.75;97475.31;5017512;28;20549;-67
2022/08/01 07:29:26;;;;;;;2.47;1.20;;;;;;;22.94;56.99;97468.16;5009701;28;20781;-67
2022/08/01 07:31:55;;;;;;;2.30;1.27;;;;;;;22.96;56.65;97466.69;5016395;28;20056;-67
2022/08/01 07:34:23;;;;;;;2.88;1.15;;;;;;;23.05;56.42;97463.91;5015946;28;20049;-67
2022/08/01 07:36:50;;;;;;;2.88;1.30;;;;;;;23.00;56.43;97456.59;5010124;28;20739;-67
2022/08/01 07:39:17;;;;;;;2.85;1.42;;;;;;;23.15;55.95;97465.47;5013247;28;20038;-67
2022/08/01 07:41:43;;;;;;;3.20;1.63;;;;;;;23.03;56.75;97466.16;5009733;28;20046;-67
2022/08/01 07:44:30;;;;;;;2.42;1.40;;;;;;;22.92;56.58;97462.97;5010607;28;20081;-67
2022/08/01 07:46:56;;;;;;;2.00;1.30;;;;;;;23.36;55.55;97462.78;5016061;28;20045;-67
2022/08/01 07:49:23;;;;;;;4.00;1.70;;;;;;;23.89;54.30;97456.84;5003467;28;20046;-67
2022/08/01 07:51:49;;;;;;;2.85;1.48;;;;;;;24.13;53.40;97452.63;5015455;28;20537;-67
2022/08/01 07:54:29;;;;;;;2.97;1.55;;;;;;;23.84;53.75;97457.06;5020959;28;20632;-67
2022/08/01 07:57:00;;;;;;;3.13;1.60;;;;;;;24.08;52.81;97454.75;5023391;28;20045;-68
2022/08/01 07:59:26;;;;;;;3.40;1.52;;;;;;;23.63;54.43;97454.31;5017112;28;20066;-67
2022/08/01 08:01:53;;;;;;;2.47;1.42;;;;;;;23.48;54.71;97462.03;5013989;28;20595;-67
2022/08/01 08:04:20;;;;;;;2.40;1.55;;;;;;;23.52;54.84;97453.91;5023803;28;20049;-67
2022/08/01 08:06:47;;;;;;;3.20;1.27;;;;;;;23.30;55.19;97452.22;5012121;28;20542;-67
2022/08/01 08:09:15;;;;;;;4.15;1.50;;;;;;;23.20;55.39;97453.41;5019998;28;20078;-67
2022/08/01 08:11:46;;;;;;;4.55;1.52;;;;;;;23.19;55.95;97449.88;5011175;28;20112;-67
2022/08/01 08:14:14;;;;;;;3.00;1.40;;;;;;;23.21;55.91;97446.75;5017212;28;20054;-67
2022/08/01 08:16:42;;;;;;;3.88;1.50;;;;;;;23.22;55.56;97454.69;5023016;28;20037;-67
2022/08/01 08:19:08;;;;;;;3.42;1.98;;;;;;;22.98;56.18;97450.63;5010606;28;20668;-67
2022/08/01 08:21:36;;;;;;;4.55;2.15;;;;;;;23.22;55.79;97451.94;5016068;28;20112;-67
2022/08/01 08:24:21;;;;;;;5.68;2.30;;;;;;;23.36;55.29;97450.91;5017687;28;20050;-67
2022/08/01 08:27:03;;;;;;;5.28;3.03;;;;;;;23.79;54.63;97457.28;5010588;28;20037;-67
2022/08/01 08:29:34;;;;;;;7.13;3.65;;;;;;;23.88;53.83;97452.47;5009016;28;20069;-67
2022/08/01 08:32:00;;;;;;;;;;;;;;;23.70;54.41;97442.72;5009430;28;20042;-67
2022/08/01 08:34:28;;;;;;;8.90;5.15;;;;;;;23.89;54.07;97445.00;5023332;28;19932;-67
2022/08/01 08:36:56;;;;;;;7.00;4.30;;;;;;;23.33;54.77;97451.56;5018207;28;20042;-67
2022/08/01 08:39:24;;;;;;;8.02;4.75;;;;;;;23.63;54.60;97440.50;5015491;28;20064;-67
2022/08/01 08:41:51;;;;;;;8.75;5.68;;;;;;;23.98;53.70;97448.50;5010453;28;20103;-67
2022/08/01 08:44:19;;;;;;;7.22;5.50;;;;;;;24.19;53.05;97436.63;5018828;28;20034;-67
2022/08/01 08:46:48;;;;;;;5.78;4.20;;;;;;;24.40;52.60;97439.31;5018864;28;20041;-67
2022/08/01 08:49:19;;;;;;;6.25;4.03;;;;;;;24.64;52.06;97446.06;5017114;28;20042;-67
2022/08/01 08:51:48;;;;;;;7.60;4.40;;;;;;;24.13;53.00;97440.72;5020933;28;20056;-67
2022/08/01 08:54:16;;;;;;;8.07;4.93;;;;;;;24.18;52.97;97448.03;5014316;28;20296;-67
2022/08/01 08:56:45;;;;;;;6.28;4.40;;;;;;;24.61;51.74;97448.72;5025337;28;20083;-67
2022/08/01 08:59:13;;;;;;;7.53;5.40;;;;;;;24.69;51.12;97442.25;5022531;28;20029;-67
2022/08/01 09:01:41;;;;;;;6.65;5.57;;;;;;;24.69;50.82;97436.72;5016082;28;20046;-67
2022/08/01 09:04:09;;;;;;;12.77;5.18;;;;;;;25.15;50.15;97446.91;5023642;28;20046;-68
2022/08/01 09:06:35;;;;;;;6.00;4.38;;;;;;;25.29;49.48;97446.56;5017042;28;20038;-68
2022/08/01 09:09:04;;;;;;;6.60;4.95;;;;;;;25.22;49.37;97444.38;5013061;28;20048;-67
2022/08/01 09:11:31;;;;;;;7.55;4.43;;;;;;;24.59;51.05;97453.78;5016404;28;20042;-68
2022/08/01 09:14:12;;;;;;;4.40;3.55;;;;;;;24.27;52.01;97460.63;5024137;28;20063;-67
2022/08/01 09:16:43;;;;;;;4.55;3.20;;;;;;;24.48;51.64;97456.16;5024782;28;20059;-67
2022/08/01 09:19:18;;;;;;;4.70;2.70;;;;;;;24.94;50.38;97448.66;5019227;28;20117;-68
2022/08/01 09:22:07;;;;;;;4.57;2.60;;;;;;;24.90;50.62;97458.00;5010730;28;20045;-68
2022/08/01 09:24:35;;;;;;;4.30;2.63;;;;;;;24.55;51.19;97446.16;5020616;28;20129;-67
2022/08/01 09:27:20;;;;;;;4.22;2.40;;;;;;;24.72;51.00;97452.63;5017965;28;20054;-67
2022/08/01 09:29:48;;;;;;;4.65;2.10;;;;;;;24.50;51.55;97457.44;5018457;28;20060;-67
2022/08/01 09:32:28;;;;;;;3.15;1.90;;;;;;;24.76;51.29;97456.34;5015146;28;20072;-68
2022/08/01 09:35:34;;;;;;;2.85;1.92;;;;;;;25.13;50.14;97455.56;5011469;28;20068;-67
2022/08/01 09:38:16;;;;;;;3.33;1.80;;;;;;;25.26;49.18;97458.34;5013153;28;20046;-66
2022/08/01 09:40:53;;;;;;;4.78;2.17;;;;;;;25.27;49.72;97446.91;5015880;28;20595;-68
2022/08/01 09:43:23;;;;;;;3.42;2.05;;;;;;;25.27;49.14;97449.69;5025044;28;20053;-68
2022/08/01 09:45:53;;;;;;;5.50;2.45;;;;;;;25.52;48.84;97460.72;5025778;28;20129;-68
2022/08/01 09:48:22;;;;;;;3.30;1.90;;;;;;;25.54;48.53;97454.84;5019114;28;20488;-68
2022/08/01 09:50:56;;;;;;;4.05;2.60;;;;;;;25.53;48.38;97456.78;5014633;28;20037;-68
2022/08/01 09:53:49;;;;;;;7.20;2.23;;;;;;;25.42;49.04;97456.47;5017097;28;20428;-68
2022/08/01 09:56:20;;;;;;;4.93;2.45;;;;;;;25.17;49.74;97455.69;5012904;28;20036;-68
2022/08/01 09:58:54;;;;;;;3.08;2.00;;;;;;;24.91;50.99;97457.66;5017668;28;20036;-67
2022/08/01 10:01:27;;;;;;;5.07;3.10;;;;;;;25.16;49.79;97454.06;5020042;28;20042;-68
2022/08/01 10:04:09;;;;;;;4.85;2.83;;;;;;;24.99;49.93;97455.91;5014164;28;20114;-67
2022/08/01 10:06:38;;;;;;;6.18;3.50;;;;;;;25.44;49.14;97447.81;5022993;28;20042;-67
2022/08/01 10:09:06;;;;;;;6.30;4.00;;;;;;;25.29;49.45;97454.88;5012765;28;20077;-68
2022/08/01 10:11:36;;;;;;;5.28;3.35;;;;;;;25.40;48.88;97452.44;5015198;28;20052;-67
2022/08/01 10:14:05;;;;;;;7.22;3.10;;;;;;;25.56;49.01;97452.50;5017281;28;20129;-67
2022/08/01 10:16:35;;;;;;;5.53;3.72;;;;;;;25.53;48.42;97440.16;5023185;28;20446;-67
2022/08/01 10:19:06;;;;;;;4.87;3.60;;;;;;;25.88;47.29;97436.06;5025807;28;20425;-66
2022/08/01 10:21:41;;;;;;;5.20;3.20;;;;;;;26.06;46.67;97438.53;5012206;28;20054;-66
2022/08/01 10:24:26;;;;;;;4.40;2.72;;;;;;;26.40;45.65;97438.25;5014739;28;20045;-66
2022/08/01 10:27:02;;;;;;;4.00;2.70;;;;;;;26.37;44.44;97459.22;5011891;28;20433;-66
2022/08/01 10:29:47;;;;;;;3.85;2.78;;;;;;;26.39;44.77;97440.25;5023203;28;20393;-66
2022/08/01 10:32:35;;;;;;;3.33;2.20;;;;;;;26.06;45.62;97433.78;5004429;28;20042;-66
2022/08/01 10:35:07;;;;;;;4.10;2.72;;;;;;;25.47;47.75;97438.81;5022034;28;20049;-66
2022/08/01 10:37:42;;;;;;;5.68;2.78;;;;;;;25.68;47.56;97441.44;5025019;28;20125;-66
2022/08/01 10:40:18;;;;;;;4.80;2.30;;;;;;;26.43;46.45;97424.50;5024902;28;20121;-67
2022/08/01 10:43:01;;;;;;;4.32;2.40;;;;;;;27.14;44.42;97434.19;5024999;28;20752;-67
2022/08/01 10:45:28;;;;;;;3.45;2.20;;;;;;;26.32;45.08;97421.41;5024369;28;20592;-68
2022/08/01 10:48:09;;;;;;;5.35;2.17;;;;;;;26.54;45.20;97430.31;5022336;28;20457;-67
2022/08/01 10:50:45;;;;;;;4.25;2.25;;;;;;;26.15;46.21;97427.25;5016906;28;20037;-68
2022/08/01 10:53:20;;;;;;;3.85;2.00;;;;;;;25.94;45.24;97422.75;5011480;28;20050;-67
2022/08/01 10:56:01;;;;;;;3.42;1.80;;;;;;;26.26;45.13;97428.41;5024888;28;20110;-68
2022/08/01 10:58:32;;;;;;;2.67;1.60;;;;;;;26.55;44.67;97420.81;5021343;28;20049;-68
2022/08/01 11:01:14;;;;;;;3.38;1.73;;;;;;;26.72;43.50;97419.66;5020347;28;20078;-68
2022/08/01 11:03:43;;;;;;;3.65;2.53;;;;;;;26.28;44.84;97414.16;5016659;28;20053;-68
2022/08/01 11:06:32;;;;;;;4.25;2.40;;;;;;;26.12;45.89;97416.88;5008629;28;20195;-68
2022/08/01 11:09:11;;;;;;;4.68;2.33;;;;;;;26.28;45.59;97419.72;5023974;28;20119;-67
2022/08/01 11:12:05;;;;;;;2.75;1.90;;;;;;;26.90;43.24;97421.28;5006405;28;20448;-68
2022/08/01 11:14:33;;;;;;;3.40;1.40;;;;;;;27.34;41.37;97403.66;5013102;28;20064;-68
2022/08/01 11:17:49;;;;;;;2.92;1.75;;;;;;;27.17;40.68;97407.63;5018987;28;20074;-68
2022/08/01 11:20:35;;;;;;;2.63;1.70;;;;;;;26.72;42.74;97404.97;5021140;28;20707;-67
2022/08/01 11:23:09;;;;;;;4.10;2.45;;;;;;;26.34;44.89;97405.22;5011345;28;20864;-68
2022/08/01 11:25:35;;;;;;;3.20;2.10;;;;;;;26.46;45.52;97404.34;5023325;28;20503;-68
2022/08/01 11:28:24;;;;;;;7.18;2.33;;;;;;;27.16;43.22;97403.25;5018696;28;20132;-67
2022/08/01 11:31:06;;;;;;;4.60;1.75;;;;;;;27.61;42.04;97401.91;5015466;28;20053;-68
2022/08/01 11:33:39;;;;;;;3.85;2.22;;;;;;;28.10;41.07;97393.28;5013405;28;20044;-68
2022/08/01 11:36:12;;;;;;;2.50;1.70;;;;;;;27.30;41.94;97394.44;5022874;28;20051;-68
2022/08/01 11:39:12;;;;;;;2.50;1.45;;;;;;;28.00;40.44;97387.16;5016694;28;20041;-67
2022/08/01 11:41:41;;;;;;;3.35;1.70;;;;;;;28.16;40.76;97392.59;5017040;28;20132;-67
2022/08/01 11:44:22;;;;;;;5.35;2.08;;;;;;;27.98;41.21;97389.50;5020519;28;20067;-67
2022/08/01 11:47:09;;;;;;;3.67;1.70;;;;;;;27.64;42.07;97392.81;5014651;28;20133;-67
2022/08/01 11:49:44;;;;;;;3.75;1.85;;;;;;;27.50;42.28;97390.47;5016475;28;20099;-67
2022/08/01 11:52:29;;;;;;;3.70;1.90;;;;;;;27.08;43.63;97372.50;5017908;28;20041;-67